createdAt,value
2018-07-23T00:01:11.792Z,42.75
2018-07-23T00:03:42.669Z,42.81
2018-07-23T00:06:15.757Z,42.63
2018-07-23T00:08:46.951Z,43.07
2018-07-23T00:11:18.035Z,43.06
2018-07-23T00:13:50.881Z,43.93
2018-07-23T00:16:21.226Z,44.42
2018-07-23T00:18:51.445Z,44.23
2018-07-23T00:21:22.027Z,44.66
2018-07-23T00:23:53.475Z,44.48
2018-07-23T00:26:24.713Z,45.76
2018-07-23T00:29:02.315Z,46.37
2018-07-23T00:31:38.612Z,45.93
2018-07-23T00:34:09.935Z,45.56
2018-07-23T00:36:42.105Z,45.97
2018-07-23T00:39:12.423Z,45.82
2018-07-23T00:41:43.717Z,46.54
2018-07-23T00:44:15.538Z,46.43
2018-07-23T00:46:59.142Z,47.31
2018-07-23T00:49:29.784Z,46.38
2018-07-23T00:52:00.603Z,47.86
2018-07-23T00:54:32.667Z,46.96
2018-07-23T00:57:11.114Z,47.84
2018-07-23T00:59:42.307Z,46.94
2018-07-23T01:02:14.017Z,47.47
2018-07-23T01:04:46.840Z,46.98
2018-07-23T01:07:20.325Z,47.24
2018-07-23T01:09:53.739Z,46.13
2018-07-23T01:12:33.760Z,46.06
2018-07-23T01:15:08.452Z,45.82
2018-07-23T01:17:39.801Z,46.91
2018-07-23T01:20:11.776Z,46.50
2018-07-23T01:22:44.113Z,46.61
2018-07-23T01:25:15.322Z,47.63
2018-07-23T01:27:48.444Z,47.41
2018-07-23T01:30:19.572Z,47.46
2018-07-23T01:32:52.967Z,48.06
2018-07-23T01:35:27.643Z,48.09
2018-07-23T01:37:59.502Z,47.79
2018-07-23T01:40:29.909Z,47.24
2018-07-23T01:43:00.569Z,47.94
2018-07-23T01:45:31.584Z,48.33
2018-07-23T01:48:02.805Z,48.68
2018-07-23T01:50:42.681Z,48.98
2018-07-23T01:53:15.449Z,49.16
2018-07-23T01:55:48.925Z,49.07
2018-07-23T01:58:20.745Z,48.76
2018-07-23T02:00:52.613Z,49.23
2018-07-23T02:03:24.410Z,49.06
2018-07-23T02:05:56.246Z,48.96
2018-07-23T02:08:29.190Z,49.71
2018-07-23T02:11:07.687Z,49.32
2018-07-23T02:13:41.858Z,49.58
2018-07-23T02:16:13.325Z,50.31
2018-07-23T02:18:48.252Z,49.87
2018-07-23T02:21:19.805Z,50.33
2018-07-23T02:23:50.518Z,49.75
2018-07-23T02:26:22.602Z,49.77
2018-07-23T02:28:54.194Z,49.41
2018-07-23T02:31:25.225Z,50.29
2018-07-23T02:33:57.039Z,50.87
2018-07-23T02:36:29.247Z,51.18
2018-07-23T02:39:00.256Z,51.70
2018-07-23T02:41:33.432Z,51.97
2018-07-23T02:44:04.490Z,52.65
2018-07-23T02:46:36.393Z,53.11
2018-07-23T02:49:08.371Z,52.70
2018-07-23T02:51:38.648Z,52.83
2018-07-23T02:54:10.079Z,52.70
2018-07-23T02:56:40.902Z,53.84
2018-07-23T02:59:11.986Z,53.03
2018-07-23T03:01:43.851Z,53.53
2018-07-23T03:04:14.965Z,53.05
2018-07-23T03:06:46.211Z,53.06
2018-07-23T03:09:18.113Z,52.99
2018-07-23T03:11:49.912Z,53.76
2018-07-23T03:14:22.505Z,53.45
2018-07-23T03:16:53.697Z,52.17
2018-07-23T03:19:29.966Z,53.09
2018-07-23T03:22:06.998Z,52.54
2018-07-23T03:24:41.375Z,53.55
2018-07-23T03:27:12.293Z,53.24
2018-07-23T03:29:44.418Z,54.32
2018-07-23T03:32:17.699Z,53.68
2018-07-23T03:34:48.559Z,54.18
2018-07-23T03:37:20.380Z,53.25
2018-07-23T03:39:51.704Z,53.57
2018-07-23T03:42:23.478Z,53.81
2018-07-23T03:44:56.433Z,54.19
2018-07-23T03:47:27.774Z,53.42
2018-07-23T03:50:01.082Z,54.07
2018-07-23T03:52:46.944Z,54.01
2018-07-23T03:55:17.713Z,53.75
2018-07-23T03:57:49.812Z,54.53
2018-07-23T04:00:21.964Z,54.00
2018-07-23T04:02:53.497Z,54.51
2018-07-23T04:05:32.036Z,54.25
2018-07-23T04:08:05.384Z,55.20
2018-07-23T04:10:37.843Z,54.54
2018-07-23T04:13:08.881Z,55.26
2018-07-23T04:15:40.304Z,55.36
2018-07-23T04:18:13.084Z,55.45
2018-07-23T04:20:47.331Z,54.62
2018-07-23T04:23:19.780Z,55.87
2018-07-23T04:25:50.544Z,55.53
2018-07-23T04:28:20.994Z,54.56
2018-07-23T04:30:51.942Z,55.84
2018-07-23T04:33:27.382Z,55.46
2018-07-23T04:36:01.647Z,54.34
2018-07-23T04:38:33.941Z,54.42
2018-07-23T04:41:07.119Z,54.61
2018-07-23T04:43:37.644Z,54.27
2018-07-23T04:46:11.007Z,53.81
2018-07-23T04:48:42.453Z,52.92
2018-07-23T04:51:15.165Z,52.07
2018-07-23T04:53:48.849Z,50.13
2018-07-23T04:56:21.762Z,49.79
2018-07-23T04:58:53.051Z,49.81
2018-07-23T05:01:23.970Z,50.25
2018-07-23T05:03:56.258Z,49.04
2018-07-23T05:06:27.960Z,49.86
2018-07-23T05:08:58.985Z,49.48
2018-07-23T05:11:32.157Z,49.71
2018-07-23T05:14:06.721Z,50.33
2018-07-23T05:16:41.628Z,50.08
2018-07-23T05:19:12.587Z,50.17
2018-07-23T05:21:44.524Z,48.94
2018-07-23T05:24:17.600Z,50.42
2018-07-23T05:26:48.613Z,49.77
2018-07-23T05:29:19.706Z,51.17
2018-07-23T05:31:52.092Z,51.22
2018-07-23T05:34:35.278Z,50.16
2018-07-23T05:37:05.721Z,50.74
2018-07-23T05:39:47.991Z,49.93
2018-07-23T05:42:19.704Z,48.47
2018-07-23T05:44:51.112Z,47.99
2018-07-23T05:47:21.802Z,48.54
2018-07-23T05:49:55.141Z,48.87
2018-07-23T05:52:26.869Z,49.22
2018-07-23T05:54:57.313Z,47.64
2018-07-23T05:57:29.905Z,48.39
2018-07-23T06:00:05.245Z,47.71
2018-07-23T06:02:35.579Z,46.84
2018-07-23T06:05:06.541Z,47.68
2018-07-23T06:07:38.721Z,45.70
2018-07-23T06:10:11.644Z,45.48
2018-07-23T06:12:51.994Z,44.53
2018-07-23T06:15:25.964Z,43.98
2018-07-23T06:17:56.922Z,42.02
2018-07-23T06:20:28.089Z,41.86
2018-07-23T06:23:01.682Z,41.56
2018-07-23T06:25:33.573Z,41.57
2018-07-23T06:28:05.832Z,42.43
2018-07-23T06:30:37.105Z,41.69
2018-07-23T06:33:08.629Z,42.35
2018-07-23T06:35:40.734Z,40.88
2018-07-23T06:38:11.888Z,38.97
2018-07-23T06:40:43.425Z,39.07
2018-07-23T06:43:15.351Z,39.32
2018-07-23T06:45:45.845Z,38.14
2018-07-23T06:48:17.590Z,40.91
2018-07-23T06:50:49.517Z,40.34
2018-07-23T06:53:21.284Z,39.46
2018-07-23T06:55:53.223Z,40.30
2018-07-23T06:58:25.001Z,38.34
2018-07-23T07:00:58.342Z,37.81
2018-07-23T07:03:29.201Z,35.63
2018-07-23T07:06:07.499Z,35.40
2018-07-23T07:08:46.513Z,36.48
2018-07-23T07:11:18.271Z,34.79
2018-07-23T07:13:49.888Z,33.75
2018-07-23T07:16:26.564Z,34.26
2018-07-23T07:18:59.762Z,35.63
2018-07-23T07:21:43.054Z,36.08
2018-07-23T07:27:02.233Z,37.55
2018-07-23T07:29:40.357Z,36.70
2018-07-23T07:32:11.530Z,40.45
2018-07-23T07:34:43.267Z,40.29
2018-07-23T07:37:18.307Z,39.18
2018-07-23T07:39:51.681Z,37.63
2018-07-23T07:45:21.710Z,39.23
2018-07-23T07:47:56.826Z,39.50
2018-07-23T07:50:33.590Z,39.01
2018-07-23T07:53:09.117Z,38.43
2018-07-23T07:55:45.465Z,37.46
2018-07-23T07:58:27.021Z,37.69
2018-07-23T08:01:03.144Z,36.53
2018-07-23T08:03:45.799Z,37.89
2018-07-23T08:06:18.672Z,37.06
2018-07-23T08:08:58.144Z,38.77
2018-07-23T08:11:38.342Z,38.28
2018-07-23T08:14:09.759Z,39.18
2018-07-23T08:16:43.068Z,38.75
2018-07-23T08:19:15.069Z,38.85
2018-07-23T08:21:46.648Z,38.15
2018-07-23T08:24:19.831Z,37.84
2018-07-23T08:26:52.534Z,37.86
2018-07-23T08:29:33.808Z,38.78
2018-07-23T08:32:12.684Z,38.22
2018-07-23T08:37:32.544Z,36.69
2018-07-23T08:40:08.068Z,35.69
2018-07-23T08:42:47.042Z,34.49
2018-07-23T08:45:29.208Z,34.52
2018-07-23T08:48:14.099Z,34.52
2018-07-23T08:50:57.271Z,34.47
2018-07-23T08:53:33.440Z,33.71
2018-07-23T08:56:13.292Z,33.19
2018-07-23T09:01:55.424Z,31.84
2018-07-23T09:04:28.266Z,31.09
2018-07-23T09:07:00.629Z,30.22
2018-07-23T09:09:31.702Z,29.37
2018-07-23T09:12:03.323Z,28.53
2018-07-23T09:14:34.875Z,29.67
2018-07-23T09:17:13.453Z,29.65
2018-07-23T09:19:45.960Z,29.54
2018-07-23T09:22:20.968Z,29.12
2018-07-23T09:25:01.299Z,29.44
2018-07-23T09:27:35.883Z,28.02
2018-07-23T09:30:18.501Z,28.55
2018-07-23T09:32:49.700Z,28.04
2018-07-23T09:35:26.700Z,28.98
2018-07-23T09:38:01.686Z,28.78
2018-07-23T09:40:38.963Z,27.89
2018-07-23T09:43:15.112Z,28.68
2018-07-23T09:45:51.846Z,28.46
2018-07-23T09:48:30.491Z,28.87
2018-07-23T09:51:04.455Z,28.16
2018-07-23T09:53:37.079Z,27.64
2018-07-23T09:56:10.016Z,27.16
2018-07-23T09:58:42.419Z,27.26
2018-07-23T10:01:25.998Z,26.04
2018-07-23T10:04:14.715Z,25.06
2018-07-23T10:06:47.150Z,25.39
2018-07-23T10:09:21.314Z,26.79
2018-07-23T10:11:54.307Z,27.59
2018-07-23T10:14:26.097Z,26.45
2018-07-23T10:16:59.216Z,27.56
2018-07-23T10:20:05.296Z,26.99
2018-07-23T10:22:40.610Z,25.72
2018-07-23T10:25:14.789Z,25.40
2018-07-23T10:27:50.416Z,25.63
2018-07-23T10:30:29.180Z,26.49
2018-07-23T10:33:06.539Z,26.44
2018-07-23T10:35:39.299Z,27.01
2018-07-23T10:38:11.851Z,27.09
2018-07-23T10:40:43.747Z,27.95
2018-07-23T10:43:16.043Z,28.32
2018-07-23T10:45:52.378Z,28.11
2018-07-23T10:48:27.236Z,28.30
2018-07-23T10:50:59.387Z,28.35
2018-07-23T10:53:30.847Z,27.52
2018-07-23T10:56:02.745Z,27.57
2018-07-23T10:58:36.420Z,26.69
2018-07-23T11:01:07.648Z,27.14
2018-07-23T11:03:47.642Z,27.55
2018-07-23T11:06:19.568Z,27.74
2018-07-23T11:08:59.415Z,27.86
2018-07-23T11:11:39.511Z,27.58
2018-07-23T11:14:14.239Z,26.77
2018-07-23T11:16:47.562Z,26.01
2018-07-23T11:19:19.146Z,24.97
2018-07-23T11:21:56.276Z,25.37
2018-07-23T11:24:27.919Z,24.68
2018-07-23T11:27:15.147Z,25.05
2018-07-23T11:29:55.645Z,24.21
2018-07-23T11:32:40.272Z,23.64
2018-07-23T11:35:14.574Z,23.60
2018-07-23T11:37:50.421Z,23.90
2018-07-23T11:40:22.429Z,24.14
2018-07-23T11:43:02.134Z,22.97
2018-07-23T11:49:19.388Z,22.50
2018-07-23T11:51:51.504Z,22.17
2018-07-23T11:54:24.412Z,21.77
2018-07-23T11:56:58.181Z,21.85
2018-07-23T11:59:33.305Z,22.12
2018-07-23T12:02:05.005Z,22.72
2018-07-23T12:04:48.752Z,22.37
2018-07-23T12:07:25.564Z,22.02
2018-07-23T12:09:58.970Z,22.82
2018-07-23T12:12:30.901Z,23.59
2018-07-23T12:15:07.471Z,22.82
2018-07-23T12:17:43.112Z,22.72
2018-07-23T12:20:24.491Z,21.92
2018-07-23T12:23:01.730Z,22.13
2018-07-23T12:25:34.160Z,22.62
2018-07-23T12:28:13.045Z,23.41
2018-07-23T12:30:49.044Z,23.83
2018-07-23T12:33:20.477Z,24.44
2018-07-23T12:35:56.396Z,23.79
2018-07-23T12:38:28.777Z,24.04
2018-07-23T12:41:01.145Z,23.14
2018-07-23T12:43:36.552Z,23.05
2018-07-23T12:46:10.562Z,22.50
2018-07-23T12:48:47.624Z,22.08
2018-07-23T12:51:21.572Z,21.76
2018-07-23T12:53:55.206Z,21.30
2018-07-23T12:59:17.208Z,22.39
2018-07-23T13:01:50.649Z,21.95
2018-07-23T13:04:24.523Z,21.97
2018-07-23T13:06:57.219Z,22.93
2018-07-23T13:09:30.701Z,22.90
2018-07-23T13:12:04.613Z,22.83
2018-07-23T13:14:42.462Z,23.54
2018-07-23T13:17:18.514Z,23.85
2018-07-23T13:19:50.406Z,23.05
2018-07-23T13:22:22.623Z,23.16
2018-07-23T13:24:53.522Z,22.74
2018-07-23T13:27:26.836Z,22.06
2018-07-23T13:30:00.457Z,22.41
2018-07-23T13:32:36.486Z,21.90
2018-07-23T13:35:07.927Z,21.21
2018-07-23T13:37:40.442Z,21.69
2018-07-23T13:40:15.232Z,22.73
2018-07-23T13:42:49.618Z,22.43
2018-07-23T13:45:21.512Z,22.62
2018-07-23T13:48:04.477Z,22.82
2018-07-23T13:50:37.011Z,22.48
2018-07-23T13:53:08.671Z,22.25
2018-07-23T13:55:42.095Z,23.69
2018-07-23T13:58:14.205Z,25.08
2018-07-23T14:00:45.369Z,25.76
2018-07-23T14:03:25.609Z,24.82
2018-07-23T14:06:01.999Z,24.45
2018-07-23T14:08:39.722Z,23.98
2018-07-23T14:11:14.368Z,24.29
2018-07-23T14:13:51.359Z,23.35
2018-07-23T14:16:25.257Z,22.77
2018-07-23T14:19:00.353Z,23.84
2018-07-23T14:21:41.467Z,24.53
2018-07-23T14:24:13.259Z,23.95
2018-07-23T14:26:45.926Z,24.04
2018-07-23T14:29:19.807Z,23.22
2018-07-23T14:31:53.569Z,23.45
2018-07-23T14:34:26.309Z,23.08
2018-07-23T14:36:59.372Z,22.75
2018-07-23T14:39:30.614Z,22.68
2018-07-23T14:42:01.024Z,22.99
2018-07-23T14:44:39.187Z,22.88
2018-07-23T14:47:09.616Z,23.03
2018-07-23T14:49:43.605Z,22.88
2018-07-23T14:52:16.567Z,22.47
2018-07-23T14:54:49.213Z,22.92
2018-07-23T14:57:23.962Z,23.79
2018-07-23T15:00:04.678Z,24.10
2018-07-23T15:02:35.881Z,24.00
2018-07-23T15:05:08.779Z,24.32
2018-07-23T15:07:51.686Z,23.83
2018-07-23T15:13:28.028Z,23.94
2018-07-23T15:16:03.906Z,24.89
2018-07-23T15:18:35.856Z,25.79
2018-07-23T15:21:08.353Z,25.78
2018-07-23T15:23:40.778Z,24.57
2018-07-23T15:26:12.906Z,24.76
2018-07-23T15:28:48.631Z,24.96
2018-07-23T15:31:22.748Z,25.20
2018-07-23T15:33:54.027Z,25.18
2018-07-23T15:39:17.284Z,26.36
2018-07-23T15:44:23.173Z,26.54
2018-07-23T15:47:13.699Z,25.81
2018-07-23T15:49:53.437Z,25.86
2018-07-23T15:52:31.779Z,26.49
2018-07-23T15:55:06.380Z,27.21
2018-07-23T15:57:41.674Z,26.76
2018-07-23T16:00:21.224Z,26.29
2018-07-23T16:02:53.379Z,26.84
2018-07-23T16:05:28.978Z,27.33
2018-07-23T16:07:59.624Z,27.42
2018-07-23T16:10:32.332Z,27.87
2018-07-23T16:13:05.768Z,27.14
2018-07-23T16:15:39.177Z,27.20
2018-07-23T16:18:11.574Z,27.46
2018-07-23T16:20:43.649Z,27.19
2018-07-23T16:23:19.438Z,27.31
2018-07-23T16:25:52.617Z,28.00
2018-07-23T16:28:24.995Z,27.03
2018-07-23T16:31:00.459Z,27.45
2018-07-23T16:33:32.476Z,27.51
2018-07-23T16:36:04.373Z,27.68
2018-07-23T16:38:38.529Z,27.52
2018-07-23T16:41:12.194Z,27.37
2018-07-23T16:43:46.686Z,27.24
2018-07-23T16:46:19.299Z,27.65
2018-07-23T16:48:50.609Z,26.95
2018-07-23T16:51:25.494Z,27.77
2018-07-23T16:53:56.483Z,28.22
2018-07-23T16:56:28.998Z,28.20
2018-07-23T16:59:05.691Z,28.33
2018-07-23T17:01:38.554Z,28.09
2018-07-23T17:04:09.020Z,28.13
2018-07-23T17:06:44.796Z,28.27
2018-07-23T17:09:16.790Z,28.11
2018-07-23T17:11:48.011Z,28.29
2018-07-23T17:14:22.443Z,28.90
2018-07-23T17:16:56.281Z,29.67
2018-07-23T17:19:31.711Z,29.86
2018-07-23T17:24:51.704Z,30.01
2018-07-23T17:27:22.195Z,29.92
2018-07-23T17:29:52.814Z,30.31
2018-07-23T17:32:27.656Z,29.64
2018-07-23T17:34:59.668Z,30.17
2018-07-23T17:37:33.502Z,29.99
2018-07-23T17:40:08.894Z,29.91
2018-07-23T17:42:42.978Z,30.39
2018-07-23T17:45:17.549Z,30.54
2018-07-23T17:47:48.887Z,29.92
2018-07-23T17:50:21.568Z,29.64
2018-07-23T17:52:51.970Z,30.65
2018-07-23T17:55:24.203Z,30.96
2018-07-23T17:57:55.292Z,31.03
2018-07-23T18:00:48.244Z,31.12
2018-07-23T18:03:20.670Z,31.28
2018-07-23T18:05:52.999Z,31.89
2018-07-23T18:08:24.002Z,31.42
2018-07-23T18:10:55.454Z,31.79
2018-07-23T18:13:27.900Z,31.33
2018-07-23T18:15:59.329Z,32.43
2018-07-23T18:18:30.491Z,32.36
2018-07-23T18:21:04.272Z,31.94
2018-07-23T18:23:36.947Z,31.97
2018-07-23T18:26:15.703Z,31.32
2018-07-23T18:31:27.472Z,31.30
2018-07-23T18:33:59.370Z,31.50
2018-07-23T18:36:30.687Z,31.38
2018-07-23T18:39:04.522Z,31.69
2018-07-23T18:41:37.786Z,31.43
2018-07-23T18:44:20.311Z,32.01
2018-07-23T18:46:53.372Z,31.96
2018-07-23T18:49:59.721Z,31.89
2018-07-23T18:52:33.951Z,32.55
2018-07-23T18:55:04.741Z,33.21
2018-07-23T18:57:38.520Z,32.62
2018-07-23T19:00:27.083Z,32.47
2018-07-23T19:02:58.324Z,32.65
2018-07-23T19:05:32.074Z,33.05
2018-07-23T19:08:12.613Z,33.05
2018-07-23T19:10:43.631Z,32.56
2018-07-23T19:13:17.271Z,33.38
2018-07-23T19:15:55.081Z,33.24
2018-07-23T19:18:31.120Z,33.32
2018-07-23T19:21:07.892Z,33.52
2018-07-23T19:23:41.954Z,33.75
2018-07-23T19:26:20.828Z,33.86
2018-07-23T19:28:52.195Z,34.40
2018-07-23T19:31:34.628Z,34.55
2018-07-23T19:34:05.985Z,34.51
2018-07-23T19:36:37.149Z,35.19
2018-07-23T19:39:13.436Z,35.72
2018-07-23T19:41:44.512Z,36.15
2018-07-23T19:44:21.482Z,37.41
2018-07-23T19:46:57.462Z,37.84
2018-07-23T19:49:30.799Z,37.17
2018-07-23T19:52:03.043Z,37.03
2018-07-23T19:54:42.389Z,36.76
2018-07-23T19:57:17.227Z,36.71
2018-07-23T19:59:51.111Z,37.59
2018-07-23T20:02:27.474Z,37.53
2018-07-23T20:05:04.034Z,38.10
2018-07-23T20:07:38.581Z,37.84
2018-07-23T20:10:12.532Z,38.22
2018-07-23T20:12:43.572Z,38.70
2018-07-23T20:15:18.129Z,39.16
2018-07-23T20:17:51.201Z,39.87
2018-07-23T20:20:31.412Z,40.02
2018-07-23T20:23:17.431Z,39.68
2018-07-23T20:25:51.523Z,40.09
2018-07-23T20:28:26.128Z,40.10
2018-07-23T20:31:02.359Z,39.73
2018-07-23T20:33:36.534Z,40.60
2018-07-23T20:36:08.523Z,41.06
2018-07-23T20:38:40.087Z,41.86
2018-07-23T20:41:12.276Z,42.00
2018-07-23T20:43:47.391Z,42.00
2018-07-23T20:46:27.489Z,41.55
2018-07-23T20:49:04.018Z,41.46
2018-07-23T20:51:42.983Z,42.00
2018-07-23T20:54:22.358Z,41.64
2018-07-23T20:56:58.026Z,42.26
2018-07-23T20:59:35.993Z,41.90
2018-07-23T21:02:25.497Z,43.14
2018-07-23T21:08:02.335Z,43.48
2018-07-23T21:10:43.132Z,44.36
2018-07-23T21:13:51.410Z,44.47
2018-07-23T21:16:31.877Z,45.25
2018-07-23T21:19:10.364Z,45.39
2018-07-23T21:21:49.405Z,45.05
2018-07-23T21:24:28.890Z,45.12
2018-07-23T21:27:07.616Z,44.48
2018-07-23T21:29:46.230Z,45.69
2018-07-23T21:32:18.322Z,44.33
2018-07-23T21:34:56.302Z,45.58
2018-07-23T21:37:38.881Z,45.57
2018-07-23T21:40:12.077Z,44.95
2018-07-23T21:42:45.792Z,45.35
2018-07-23T21:45:23.465Z,45.49
2018-07-23T21:47:54.760Z,45.44
2018-07-23T21:50:28.613Z,45.63
2018-07-23T21:53:00.763Z,45.57
2018-07-23T21:55:31.200Z,46.27
2018-07-23T21:58:05.331Z,46.24
2018-07-23T22:00:39.342Z,46.81
2018-07-23T22:03:09.694Z,46.57
2018-07-23T22:05:40.548Z,46.13
2018-07-23T22:08:11.297Z,46.21
2018-07-23T22:10:48.542Z,46.58
2018-07-23T22:13:18.976Z,46.73
2018-07-23T22:15:49.943Z,47.09
2018-07-23T22:18:20.966Z,47.30
2018-07-23T22:20:53.130Z,48.00
2018-07-23T22:23:26.536Z,47.17
2018-07-23T22:25:57.190Z,47.14
2018-07-23T22:28:28.388Z,47.15
2018-07-23T22:30:59.200Z,47.49
2018-07-23T22:33:31.635Z,46.80
2018-07-23T22:36:02.217Z,47.62
2018-07-23T22:38:32.976Z,47.85
2018-07-23T22:41:05.418Z,48.52
2018-07-23T22:43:42.375Z,48.15
2018-07-23T22:46:15.080Z,48.53
2018-07-23T22:48:46.659Z,49.08
2018-07-23T22:51:18.564Z,49.31
2018-07-23T22:53:50.271Z,48.70
2018-07-23T22:56:21.528Z,48.27
2018-07-23T22:58:54.130Z,48.79
2018-07-23T23:01:24.872Z,48.63
2018-07-23T23:03:55.880Z,49.79
2018-07-23T23:06:29.242Z,49.06
2018-07-23T23:09:01.459Z,48.62
2018-07-23T23:11:33.808Z,49.09
2018-07-23T23:14:05.640Z,48.89
2018-07-23T23:16:36.739Z,49.53
2018-07-23T23:19:10.661Z,49.51
2018-07-23T23:21:40.890Z,48.65
2018-07-23T23:24:13.335Z,48.86
2018-07-23T23:26:45.990Z,49.42
2018-07-23T23:29:17.096Z,50.40
2018-07-23T23:31:47.819Z,49.88
2018-07-23T23:34:19.214Z,49.17
2018-07-23T23:36:49.445Z,48.26
2018-07-23T23:39:20.776Z,48.41
2018-07-23T23:41:53.030Z,49.25
2018-07-23T23:44:23.448Z,48.54
2018-07-23T23:46:54.019Z,49.13
2018-07-23T23:49:24.731Z,48.93
2018-07-23T23:51:55.136Z,48.71
2018-07-23T23:54:25.634Z,49.66
2018-07-23T23:56:56.251Z,50.50
2018-07-23T23:59:26.738Z,50.42
